< < Back
Terminal Aerodrome Forecast


Current Version              Previous Versions:   1  2  3  4  5  6  7  8  9  

Terminal Aerodrome Forecast

111
FTUS42 KFFC 220935 AAA
TAFAHN
TAF AMD
KAHN 220935Z 2210/2306 08009KT 2SM -DZ BR OVC005
     FM221600 09008KT 5SM -DZ BR OVC007
     FM230000 09011KT 5SM -DZ BR OVC004=

Latest METAR

124
SAUS70 KWBC 221000
MTRAHN
METAR KAHN 220951Z AUTO 06007KT 2SM BR OVC004 07/06 A3006 RMK AO2 SLP180
T00670056


USA.gov is the U.S. government's official web portal to all federal, state and local government web resources and services.